Newcastle Airport
YWLM : now visible

Airfield :











YOU CAN JOIN US ON...

 
LOGIN :

Register | Disclaimer

   EN    FR    IT 

 









Legend :    VFR   Marginal VFR   IFR   Intensive IFR   Very Intensive IFR
Visi :
Ceiling :
>= 8 km
>= 3000ft
5 to 8 km
1000 to 3000 ft
1500m to 5 km
500 to 1000 ft
800 to 1500m
200 to 500 ft
< 800m
< 200 ft
Symbols :   Thunderstorms  Fog  Heavy snow  Heavy precipitations  Wind > 20 kt






- Airport Elevation : 31 ft
- IATA code : NTL


YWLM - Newcastle

CURRENT METAR :
  • 040500Z 30010KT 9999 FEW010 SCT029 BKN045 17/15 Q1013 RF00.0/000.0

EXPIRED METARs :
  • 040430Z 29007KT 9999 FEW010 BKN046 BKN250 17/15 Q1012 RF00.0/000.0 2 CU 2800FT
  • 040330Z 29008KT 9999 FEW010 SCT025 BKN250 17/15 Q1012 RF00.0/000.0
  • 040300Z 30009KT 9999 FEW010 SCT025 BKN250 17/15 Q1013 RF00.0/000.0
  • 040230Z 29008KT 9999 FEW010 SCT025 BKN250 17/15 Q1013 RF00.0/000.0

TAF TAF YWLM
Valid from the 04 at 02:00 until the 05 at 00:00 UTC


040106Z 0402/0500 28012KT 9999 -SHRA SCT005 BKN018
FM040500 15020G32KT 9999 -SHRA SCT010 BKN020
FM041800 14024G36KT 9999 -SHRA SCT008 BKN016 INTER 0402/0405 4000 SHRA BKN005
TEMPO 0405/0500 3000 -SHRA SCT006 BKN010
YBBB FIR / Oceania



MET'MAP, your aeronautical weather chart ! - Copyright ORBIFLY December 2007 - Disclaimer

ORBIFLY MET'MAP TEAM :

Programming & Development : Alexandra Zaïnal
Original concept : Baudouin d'Aumeries
Technical & hardware support : Manuel Goepfert
Assistance : Marc-Olivier Méhu




SOURCES & CREDITS :

   NOAA       Earth
Advisory